Time;durP1;ratioP1;P1;durP2;ratioP2;P2;SDS_P1;SDS_P2;PMS_P1;PMS_P2;Temp;Humidity;BMP_temperature;BMP_pressure;BME280_temperature;BME280_humidity;BME280_pressure;Samples;Min_cycle;Max_cycle;Signal;HPM_P1;HPM_P2
2021/09/14 00:03:52;;;;;;;3.40;3.20;;;;;;;13.16;100.00;100740.09;20751361;28;20247;-64
2021/09/14 00:13:55;;;;;;;4.00;3.70;;;;;;;13.24;100.00;100739.59;20751765;28;20224;-63
2021/09/14 00:23:58;;;;;;;4.27;3.97;;;;;;;13.31;100.00;100743.53;20751165;28;20238;-64
2021/09/14 00:34:01;;;;;;;4.27;3.97;;;;;;;13.42;100.00;100740.13;20748727;28;20255;-63
2021/09/14 00:44:05;;;;;;;4.60;4.20;;;;;;;13.47;100.00;100743.34;20727122;28;20229;-65
2021/09/14 00:54:08;;;;;;;4.00;3.70;;;;;;;13.54;100.00;100744.63;20765357;28;20703;-64
2021/09/14 01:04:12;;;;;;;4.03;3.70;;;;;;;13.56;100.00;100751.59;20829078;28;20231;-65
2021/09/14 01:14:14;;;;;;;4.67;4.07;;;;;;;13.65;100.00;100747.41;20810736;28;20233;-66
2021/09/14 01:24:18;;;;;;;4.53;4.23;;;;;;;13.73;100.00;100750.44;20809821;28;20253;-65
2021/09/14 01:34:30;;;;;;;4.67;4.37;;;;;;;13.80;100.00;100748.16;20809277;28;20276;-65
2021/09/14 01:44:34;;;;;;;3.73;3.50;;;;;;;13.79;100.00;100755.34;20825925;28;20224;-64
2021/09/14 01:54:36;;;;;;;3.70;3.50;;;;;;;13.78;100.00;100752.78;20807882;28;20620;-64
2021/09/14 02:04:48;;;;;;;3.30;3.10;;;;;;;13.79;100.00;100755.34;20824217;28;20759;-64
2021/09/14 02:56:28;;;;;;;3.80;3.50;;;;;;;13.96;100.00;100751.50;20820473;28;20238;-65
2021/09/14 03:06:33;;;;;;;3.50;3.30;;;;;;;13.97;100.00;100748.69;20821003;28;20696;-65
2021/09/14 03:16:42;;;;;;;4.70;4.30;;;;;;;14.00;100.00;100753.84;20807762;28;20648;-65
2021/09/14 03:26:46;;;;;;;4.30;4.00;;;;;;;14.07;100.00;100760.50;20818857;28;20235;-65
2021/09/14 03:36:48;;;;;;;4.07;3.77;;;;;;;14.11;100.00;100765.63;20818101;28;20304;-65
2021/09/14 03:46:53;;;;;;;3.90;3.60;;;;;;;14.13;100.00;100753.81;20834858;28;20314;-67
2021/09/14 03:56:55;;;;;;;4.03;3.73;;;;;;;14.18;100.00;100775.81;20833822;28;20318;-65
2021/09/14 04:07:22;;;;;;;4.07;3.77;;;;;;;14.18;100.00;100780.31;20833356;28;20236;-65
2021/09/14 04:17:24;;;;;;;3.67;3.37;;;;;;;14.17;100.00;100786.66;20813703;28;20266;-70
2021/09/14 04:27:29;;;;;;;3.70;3.40;;;;;;;14.20;100.00;100786.44;20831444;28;20239;-66
2021/09/14 04:37:32;;;;;;;3.90;3.60;;;;;;;14.29;100.00;100793.81;20749430;28;20240;-65
2021/09/14 04:47:36;;;;;;;3.80;3.50;;;;;;;14.41;100.00;100795.66;20734812;28;20253;-65
2021/09/14 04:57:39;;;;;;;3.60;3.30;;;;;;;14.67;100.00;100802.69;20820022;28;20242;-64
2021/09/14 05:07:44;;;;;;;3.53;3.30;;;;;;;14.77;100.00;100798.34;20799973;28;20220;-64
2021/09/14 05:17:46;;;;;;;3.60;3.30;;;;;;;15.06;100.00;100808.75;20825884;28;20228;-65
2021/09/14 05:28:14;;;;;;;3.27;3.07;;;;;;;15.38;100.00;100817.91;20826123;28;20228;-62
2021/09/14 05:38:18;;;;;;;3.90;3.70;;;;;;;15.63;100.00;100827.69;20825248;28;20235;-64
2021/09/14 05:48:23;;;;;;;3.63;3.00;;;;;;;15.97;100.00;100825.91;20825437;28;20306;-63
2021/09/14 05:58:25;;;;;;;3.17;2.93;;;;;;;16.55;100.00;100818.53;20824373;28;20653;-62
2021/09/14 06:08:29;;;;;;;3.53;3.23;;;;;;;17.08;100.00;100826.78;20806291;28;20737;-63
2021/09/14 06:18:32;;;;;;;2.97;2.77;;;;;;;17.47;100.00;100826.16;20823140;28;20228;-63
2021/09/14 06:28:36;;;;;;;3.10;2.90;;;;;;;17.89;100.00;100839.66;20804996;28;20228;-62
2021/09/14 06:38:39;;;;;;;3.23;3.03;;;;;;;18.21;100.00;100840.44;20804709;28;20238;-64
2021/09/14 06:48:44;;;;;;;3.10;2.90;;;;;;;18.58;100.00;100845.31;20821461;28;20224;-62
2021/09/14 06:58:47;;;;;;;3.27;3.00;;;;;;;18.27;100.00;100847.97;20820973;28;20227;-62
2021/09/14 07:08:50;;;;;;;2.83;2.63;;;;;;;17.46;100.00;100837.94;20820982;28;20226;-63
2021/09/14 07:18:53;;;;;;;3.23;2.80;;;;;;;17.26;100.00;100846.84;20820514;28;20346;-62
2021/09/14 07:28:56;;;;;;;3.20;3.00;;;;;;;17.40;100.00;100843.81;20820162;28;20240;-63
2021/09/14 07:38:59;;;;;;;7.10;3.47;;;;;;;17.68;100.00;100855.00;20819826;28;20228;-63
2021/09/14 07:49:02;;;;;;;2.70;2.50;;;;;;;17.93;100.00;100847.38;20819400;28;20228;-63
2021/09/14 07:59:05;;;;;;;2.20;2.10;;;;;;;18.05;100.00;100853.56;20818668;28;20225;-63
2021/09/14 08:09:08;;;;;;;1.80;1.70;;;;;;;18.49;100.00;100855.03;20832894;28;20264;-63
2021/09/14 08:19:11;;;;;;;1.80;1.30;;;;;;;19.29;100.00;100865.81;20832780;28;20235;-63
2021/09/14 08:29:14;;;;;;;0.43;0.43;;;;;;;20.29;100.00;100871.69;20832081;28;20766;-63
2021/09/14 08:39:17;;;;;;;2.10;0.70;;;;;;;21.73;100.00;100859.16;20813409;28;20808;-62
2021/09/14 08:49:21;;;;;;;0.90;0.60;;;;;;;22.57;100.00;100875.72;20830272;28;20232;-62
2021/09/14 08:59:28;;;;;;;1.50;0.80;;;;;;;22.33;100.00;100872.00;20829329;28;20854;-67
2021/09/14 09:09:32;;;;;;;10.97;2.30;;;;;;;21.62;100.00;100877.53;20828623;28;20309;-64
2021/09/14 09:19:35;;;;;;;1.17;0.90;;;;;;;21.75;100.00;100867.97;20828212;28;20239;-62
2021/09/14 09:29:39;;;;;;;0.50;0.50;;;;;;;23.00;100.00;100892.94;20827541;28;20824;-62
2021/09/14 09:39:45;;;;;;;0.87;0.40;;;;;;;24.77;100.00;100901.31;20826770;28;20783;-63
2021/09/14 09:49:48;;;;;;;0.50;0.50;;;;;;;26.41;100.00;100886.38;20826042;28;20220;-66
2021/09/14 09:59:51;;;;;;;0.70;0.70;;;;;;;25.62;100.00;100885.00;20824979;28;20228;-63
2021/09/14 10:09:56;;;;;;;1.30;1.20;;;;;;;23.77;100.00;100869.94;20824499;28;20776;-62
2021/09/14 10:20:11;;;;;;;1.97;1.70;;;;;;;22.49;95.54;100867.50;20823627;28;20584;-62
2021/09/14 10:30:16;;;;;;;2.20;2.10;;;;;;;21.04;100.00;100875.22;20822455;28;20240;-66
2021/09/14 10:40:22;;;;;;;2.70;2.50;;;;;;;19.89;100.00;100869.25;20821985;28;20323;-62
2021/09/14 10:50:29;;;;;;;4.47;2.87;;;;;;;20.12;100.00;100875.19;20822119;28;20581;-62
2021/09/14 11:00:33;;;;;;;2.50;2.30;;;;;;;20.74;100.00;100877.28;20821302;28;20323;-65
2021/09/14 11:10:39;;;;;;;2.30;2.10;;;;;;;21.57;100.00;100875.31;20821224;28;20716;-64
2021/09/14 11:20:41;;;;;;;2.10;2.00;;;;;;;22.06;100.00;100864.88;20820495;28;20238;-62
2021/09/14 11:30:53;;;;;;;1.80;1.70;;;;;;;22.43;100.00;100862.72;20820542;28;20224;-63
2021/09/14 11:40:58;;;;;;;1.60;1.50;;;;;;;22.42;100.00;100847.41;20829885;28;20223;-63
2021/09/14 11:51:06;;;;;;;2.10;2.00;;;;;;;22.48;100.00;100854.91;20835426;28;20232;-69
2021/09/14 12:01:09;;;;;;;1.50;1.50;;;;;;;23.33;100.00;100862.03;20833892;28;20282;-62
2021/09/14 12:11:23;;;;;;;1.70;1.60;;;;;;;23.56;100.00;100851.34;20833760;28;20243;-63
2021/09/14 12:21:27;;;;;;;1.83;1.70;;;;;;;23.42;100.00;100859.34;20832869;28;20663;-62
2021/09/14 12:31:31;;;;;;;1.97;1.80;;;;;;;23.95;100.00;100850.66;20832495;28;20228;-62
2021/09/14 12:41:33;;;;;;;1.83;1.73;;;;;;;23.33;100.00;100833.94;20831474;28;20228;-62
2021/09/14 12:51:37;;;;;;;1.90;1.53;;;;;;;22.76;100.00;100835.69;20830474;28;20295;-63
2021/09/14 13:01:39;;;;;;;1.67;1.57;;;;;;;22.92;100.00;100824.88;20829736;28;20286;-63
2021/09/14 13:11:43;;;;;;;2.10;1.90;;;;;;;22.93;100.00;100837.47;20829086;28;20227;-62
2021/09/14 13:21:45;;;;;;;2.60;2.40;;;;;;;22.56;100.00;100841.38;20810148;28;20248;-62
2021/09/14 13:31:49;;;;;;;2.60;2.50;;;;;;;22.10;100.00;100839.03;20827398;28;20775;-74
2021/09/14 13:41:53;;;;;;;3.07;2.83;;;;;;;21.96;100.00;100828.75;20826840;28;20251;-61
2021/09/14 13:51:57;;;;;;;3.00;2.80;;;;;;;22.17;100.00;100829.25;20825442;28;20230;-63
2021/09/14 14:01:59;;;;;;;4.00;3.70;;;;;;;21.81;100.00;100832.06;20824472;28;20303;-62
2021/09/14 14:12:03;;;;;;;5.27;4.87;;;;;;;21.89;100.00;100829.38;20825086;28;20228;-64
2021/09/14 14:22:06;;;;;;;6.43;5.83;;;;;;;22.53;100.00;100824.50;20734017;28;20284;-63
2021/09/14 14:32:10;;;;;;;4.50;4.20;;;;;;;22.50;100.00;100831.13;20742245;28;20233;-63
2021/09/14 14:42:13;;;;;;;7.30;6.60;;;;;;;22.02;100.00;100826.28;20739134;28;20232;-64
2021/09/14 14:52:17;;;;;;;6.53;5.93;;;;;;;21.22;100.00;100816.44;20740929;28;20318;-62
2021/09/14 15:02:19;;;;;;;6.73;6.33;;;;;;;20.28;100.00;100821.22;20739431;28;20306;-62
2021/09/14 15:12:23;;;;;;;6.67;6.13;;;;;;;20.06;100.00;100827.84;20746525;28;20227;-62
2021/09/14 15:22:25;;;;;;;6.57;6.07;;;;;;;19.99;100.00;100821.31;20756549;28;20235;-62
2021/09/14 15:32:29;;;;;;;7.00;6.50;;;;;;;19.59;100.00;100818.81;20755679;28;20228;-62
2021/09/14 15:42:31;;;;;;;6.13;5.73;;;;;;;18.95;100.00;100819.38;20754771;28;20266;-61
2021/09/14 15:52:35;;;;;;;6.63;6.13;;;;;;;18.40;100.00;100814.47;20752879;28;20298;-62
2021/09/14 16:02:37;;;;;;;66.97;42.87;;;;;;;18.02;100.00;100810.59;20753050;28;20714;-62
2021/09/14 16:12:41;;;;;;;19.43;17.40;;;;;;;17.76;100.00;100812.00;20749427;28;20587;-63
2021/09/14 16:22:44;;;;;;;10.20;9.33;;;;;;;17.45;100.00;100806.53;20749986;28;20251;-63
2021/09/14 16:32:48;;;;;;;6.90;6.40;;;;;;;17.04;100.00;100810.00;20750243;28;20224;-63
2021/09/14 16:42:50;;;;;;;5.30;5.00;;;;;;;16.54;100.00;100811.47;20749832;28;20248;-64
2021/09/14 16:52:54;;;;;;;5.83;5.43;;;;;;;15.98;100.00;100811.47;20748797;28;20228;-62
2021/09/14 17:02:57;;;;;;;6.37;5.97;;;;;;;15.37;100.00;100815.34;20744972;28;20247;-65
2021/09/14 17:13:01;;;;;;;8.50;7.83;;;;;;;14.75;100.00;100824.44;20744261;28;20224;-63
2021/09/14 17:23:03;;;;;;;9.67;8.80;;;;;;;14.27;100.00;100819.91;20737961;28;20530;-64
2021/09/14 17:33:07;;;;;;;9.83;8.93;;;;;;;13.86;100.00;100831.78;20736453;28;20233;-63
2021/09/14 17:43:10;;;;;;;17.53;11.73;;;;;;;13.54;100.00;100838.47;20741110;28;20797;-64
2021/09/14 17:53:16;;;;;;;15.50;13.83;;;;;;;13.28;100.00;100830.38;20740511;28;20706;-63
2021/09/14 18:03:19;;;;;;;13.73;11.37;;;;;;;13.01;100.00;100826.84;20732465;28;20241;-65
2021/09/14 18:13:23;;;;;;;11.00;9.90;;;;;;;12.79;100.00;100838.13;20736886;28;20419;-64
2021/09/14 18:23:25;;;;;;;11.47;10.30;;;;;;;12.55;100.00;100845.94;20731008;28;20249;-64
2021/09/14 18:33:33;;;;;;;9.87;8.70;;;;;;;12.32;100.00;100843.00;20734985;28;20632;-65
2021/09/14 18:43:46;;;;;;;8.70;7.93;;;;;;;12.22;100.00;100837.34;20732636;28;20237;-64
2021/09/14 18:53:52;;;;;;;11.93;10.77;;;;;;;12.21;100.00;100812.41;20719968;28;20244;-69
2021/09/14 19:04:12;;;;;;;16.27;14.50;;;;;;;12.47;100.00;100832.16;20719301;28;20232;-65
2021/09/14 19:14:21;;;;;;;20.43;15.87;;;;;;;12.37;100.00;100831.03;20729253;28;20231;-61
2021/09/14 19:24:25;;;;;;;14.67;12.70;;;;;;;12.23;100.00;100844.41;20733001;28;20283;-59
2021/09/14 19:34:32;;;;;;;11.23;10.13;;;;;;;12.13;100.00;100854.84;20717330;28;20579;-61
2021/09/14 19:44:36;;;;;;;12.87;11.67;;;;;;;12.09;100.00;100857.78;20754072;28;20236;-61
2021/09/14 19:54:40;;;;;;;11.60;10.43;;;;;;;11.84;100.00;100858.44;20767031;28;20438;-61
2021/09/14 20:04:42;;;;;;;12.13;10.77;;;;;;;11.53;100.00;100854.91;20782611;28;20234;-60
2021/09/14 20:14:49;;;;;;;14.13;11.93;;;;;;;11.35;100.00;100855.16;20783791;28;20228;-64
2021/09/14 20:24:53;;;;;;;15.67;12.53;;;;;;;11.14;100.00;100860.78;20779506;28;20208;-67
2021/09/14 20:34:57;;;;;;;11.10;9.90;;;;;;;11.07;100.00;100862.09;20760493;28;20714;-60
2021/09/14 20:45:01;;;;;;;15.60;11.80;;;;;;;10.96;100.00;100863.66;20780904;28;20716;-60
2021/09/14 20:55:11;;;;;;;10.10;8.47;;;;;;;10.78;100.00;100849.53;20779513;28;20247;-63
2021/09/14 21:05:14;;;;;;;11.97;9.60;;;;;;;10.60;100.00;100856.78;20777984;28;20742;-63
2021/09/14 21:15:19;;;;;;;12.37;10.97;;;;;;;10.48;100.00;100867.28;20794537;28;20761;-62
2021/09/14 21:25:22;;;;;;;11.43;9.27;;;;;;;10.40;100.00;100868.53;20802906;28;20239;-71
2021/09/14 21:35:26;;;;;;;9.17;8.27;;;;;;;10.25;100.00;100865.88;20823696;28;20250;-60
2021/09/14 21:45:28;;;;;;;14.03;12.07;;;;;;;10.13;100.00;100862.03;20824573;28;20232;-60
2021/09/14 21:55:32;;;;;;;14.77;11.80;;;;;;;10.11;100.00;100853.25;20825556;28;20318;-62
2021/09/14 22:05:35;;;;;;;18.33;12.87;;;;;;;10.10;100.00;100846.19;20825220;28;20592;-60
2021/09/14 22:15:39;;;;;;;10.60;8.90;;;;;;;10.01;100.00;100852.88;20813111;28;20616;-60
2021/09/14 22:25:43;;;;;;;13.10;10.77;;;;;;;9.92;100.00;100841.81;20822494;28;20309;-59
2021/09/14 22:35:46;;;;;;;18.63;14.47;;;;;;;10.19;100.00;100837.72;20822814;28;20292;-62
2021/09/14 22:45:49;;;;;;;18.40;12.93;;;;;;;10.13;100.00;100840.69;20817395;28;20285;-61
2021/09/14 22:55:52;;;;;;;15.37;12.10;;;;;;;10.13;100.00;100830.03;20821706;28;20293;-61
2021/09/14 23:05:55;;;;;;;10.97;9.33;;;;;;;9.99;100.00;100832.56;20821254;28;20720;-62
2021/09/14 23:15:59;;;;;;;18.57;13.23;;;;;;;9.97;100.00;100835.31;20820777;28;20240;-60
2021/09/14 23:26:01;;;;;;;15.43;12.13;;;;;;;10.00;100.00;100839.63;20820470;28;20901;-61
2021/09/14 23:36:05;;;;;;;17.10;11.80;;;;;;;10.00;100.00;100828.97;20812680;28;20713;-63
2021/09/14 23:46:08;;;;;;;16.37;11.77;;;;;;;9.80;100.00;100826.47;20835981;28;20771;-63
2021/09/14 23:56:12;;;;;;;20.17;14.63;;;;;;;9.75;100.00;100824.94;20834278;28;20315;-65
